Portada
METAR-TAF:

METAR-TAF

Aeropuertos :

Madrid, España

Aeropuerto de Madrid-Barajas

latitud: 40-27N, longitud: 003-33W, altitud: 609 m

Observación

El informe se hizo hace 25 minutos, a las 09:30 UTC
Viento 2 kt del oeste-suroeste
Temperatura 12°C
Humedad 67%
Presión 1028 hPa
Visibilidad 10 km o más
sin nubes por debajo de 1500 m y sin presencia de cumulonimbus.

METAR: LEMD 230930Z 25002KT CAVOK 12/06 Q1028 NOSIG

Hora: 11:55 (09:55 UTC)

Pronóstico

El informe se hizo hace 4 horas y 55 minutos, a las 05:00 UTC
Pronóstico válido del 23 a las 06 UTC al 24 a las 12 UTC
Viento 3 kt del norte-noreste
Visibilidad 10 km o más
sin nubes por debajo de 1500 m y sin presencia de cumulonimbus.

TAF: LEMD 230500Z 2306/2412 02003KT CAVOK TX21/2315Z TN07/2307Z

Observaciones y pronósticos meteorológicos de más de 4000 aeropuertos (mensajes METAR y TAF).

Los puntos amarillos y rojos representan las estaciones disponibles.

Ponga el ratón en el punto deseado para ver el nombre de la estación.

Haga clic para ver las observaciones y los pronósticos meteorológicos.

Para cambiar el mapa : haga clic en los botones verdes con una cruz de color negro para hacer un zoom, en el botón verde con un guión para alejar o en las flechas verdes para mapas adyacentes.


METAR-TAF: